Time;durP1;ratioP1;P1;durP2;ratioP2;P2;SDS_P1;SDS_P2;PMS_P1;PMS_P2;Temp;Humidity;BMP_temperature;BMP_pressure;BME280_temperature;BME280_humidity;BME280_pressure;Samples;Min_cycle;Max_cycle;Signal;HPM_P1;HPM_P2
2021/05/06 08:03:29;;;;;;;4.88;1.75;;;;;;;;;;5050298;27;20370;-94
2021/05/06 08:05:57;;;;;;;3.42;1.60;;;;;;;;;;5049722;28;20043;-93
2021/05/06 08:08:23;;;;;;;2.88;1.80;;;;;;;;;;5049058;28;20044;-95
2021/05/06 08:10:48;;;;;;;3.42;1.65;;;;;;;;;;5050850;28;20050;-95
2021/05/06 08:13:14;;;;;;;2.58;1.60;;;;;;;;;;5025128;27;20048;-92
2021/05/06 08:15:39;;;;;;;2.55;1.58;;;;;;;;;;5111407;28;20400;-92
2021/05/06 08:18:05;;;;;;;2.97;1.58;;;;;;;;;;5115606;28;20035;-95
2021/05/06 08:20:32;;;;;;;3.85;1.90;;;;;;;;;;5115832;28;20568;-92
2021/05/06 08:22:58;;;;;;;3.55;1.90;;;;;;;;;;5114722;28;20035;-95
2021/05/06 08:25:24;;;;;;;3.60;1.88;;;;;;;;;;5115200;28;20040;-94
2021/05/06 08:27:50;;;;;;;4.55;1.70;;;;;;;;;;5112277;28;20036;-93
2021/05/06 08:30:16;;;;;;;2.30;1.60;;;;;;;;;;5114489;28;20093;-91
2021/05/06 08:32:42;;;;;;;3.75;1.70;;;;;;;;;;5114817;28;20537;-93
2021/05/06 08:35:08;;;;;;;2.95;1.80;;;;;;;;;;5115495;28;20031;-94
2021/05/06 08:39:05;;;;;;;5.72;1.60;;;;;;;;;;5138697;27;20378;-93
2021/05/06 08:41:31;;;;;;;3.80;1.75;;;;;;;;;;4998102;27;304593;-93
2021/05/06 08:44:00;;;;;;;3.72;1.90;;;;;;;;;;5080917;28;20040;-92
2021/05/06 08:50:22;;;;;;;3.70;1.63;;;;;;;;;;5109440;27;20357;-93
2021/05/06 08:53:09;;;;;;;3.03;1.70;;;;;;;;;;5095079;28;20078;-92
2021/05/06 08:55:56;;;;;;;2.80;1.55;;;;;;;;;;5106984;28;20488;-93
2021/05/06 08:58:42;;;;;;;2.83;1.70;;;;;;;;;;5100518;28;20040;-92
2021/05/06 09:01:28;;;;;;;4.40;1.60;;;;;;;;;;5114198;28;20768;-93
2021/05/06 09:03:53;;;;;;;3.95;1.60;;;;;;;;;;5106344;28;20036;-94
2021/05/06 09:06:52;;;;;;;2.47;1.65;;;;;;;;;;5096237;28;20038;-93
2021/05/06 09:09:18;;;;;;;2.95;1.70;;;;;;;;;;5103226;28;20040;-93
2021/05/06 09:11:44;;;;;;;1.65;1.30;;;;;;;;;;5106195;28;20480;-93
2021/05/06 09:14:10;;;;;;;3.53;1.67;;;;;;;;;;5113407;28;20067;-95
2021/05/06 09:16:37;;;;;;;3.38;1.55;;;;;;;;;;5114744;28;20044;-94
2021/05/06 09:19:04;;;;;;;3.05;1.70;;;;;;;;;;5100755;28;20502;-93
2021/05/06 09:21:30;;;;;;;4.07;1.73;;;;;;;;;;5110255;28;20035;-95
2021/05/06 09:24:07;;;;;;;5.97;1.80;;;;;;;;;;5111476;28;20035;-95
2021/05/06 09:26:33;;;;;;;2.13;1.63;;;;;;;;;;5108973;28;20484;-95
2021/05/06 09:29:00;;;;;;;3.13;1.52;;;;;;;;;;5111716;28;20039;-95
2021/05/06 09:31:26;;;;;;;3.03;1.70;;;;;;;;;;5107528;28;20032;-92
2021/05/06 09:33:52;;;;;;;2.80;1.58;;;;;;;;;;5111286;28;20131;-92
2021/05/06 09:36:19;;;;;;;1.77;1.50;;;;;;;;;;5105497;28;20040;-93
2021/05/06 09:38:46;;;;;;;4.03;1.60;;;;;;;;;;5108604;28;20052;-93
2021/05/06 09:41:13;;;;;;;3.20;1.90;;;;;;;;;;5102962;28;20048;-92
2021/05/06 09:49:39;;;;;;;3.03;1.80;;;;;;;;;;5153203;27;20352;-92
2021/05/06 09:52:05;;;;;;;2.67;1.80;;;;;;;;;;5157765;27;20049;-93
2021/05/06 09:54:31;;;;;;;3.05;1.90;;;;;;;;;;5164983;27;20386;-92
2021/05/06 09:56:58;;;;;;;3.10;2.00;;;;;;;;;;5155730;27;20454;-92
2021/05/06 09:59:24;;;;;;;4.40;2.05;;;;;;;;;;5139596;27;20505;-94
2021/05/06 10:01:50;;;;;;;4.30;2.00;;;;;;;;;;5154127;27;20031;-94
2021/05/06 10:04:17;;;;;;;2.33;1.60;;;;;;;;;;5155653;27;20038;-93
2021/05/06 10:07:02;;;;;;;4.07;1.83;;;;;;;;;;5154956;27;20034;-94
2021/05/06 10:09:28;;;;;;;4.70;1.80;;;;;;;;;;5148617;27;20066;-94
2021/05/06 10:11:54;;;;;;;3.85;1.88;;;;;;;;;;5155064;27;20079;-93
2021/05/06 10:14:20;;;;;;;2.25;1.70;;;;;;;;;;5164547;27;20049;-93
2021/05/06 10:16:45;;;;;;;3.00;1.60;;;;;;;;;;5150350;27;20041;-91
2021/05/06 10:19:11;;;;;;;3.85;1.70;;;;;;;;;;5154543;27;20042;-93
2021/05/06 10:21:37;;;;;;;3.17;1.60;;;;;;;;;;5170756;27;20041;-93
2021/05/06 10:24:04;;;;;;;4.47;1.70;;;;;;;;;;5164015;27;20372;-94
2021/05/06 10:26:29;;;;;;;4.70;1.80;;;;;;;;;;5156211;27;20352;-92
2021/05/06 10:28:55;;;;;;;3.35;1.70;;;;;;;;;;5154250;27;20084;-94
2021/05/06 10:31:21;;;;;;;3.70;1.88;;;;;;;;;;5155388;27;20035;-91
2021/05/06 10:33:47;;;;;;;2.53;1.77;;;;;;;;;;5153504;27;20066;-95
2021/05/06 10:36:13;;;;;;;2.17;1.58;;;;;;;;;;5153666;27;20054;-92
2021/05/06 10:38:40;;;;;;;3.20;1.90;;;;;;;;;;5154934;27;20035;-93
2021/05/06 10:44:35;;;;;;;3.53;1.77;;;;;;;;;;5150831;27;20378;-92
2021/05/06 10:47:01;;;;;;;3.38;1.90;;;;;;;;;;5134379;27;20054;-92
2021/05/06 10:49:27;;;;;;;4.05;1.80;;;;;;;;;;5134505;27;20063;-93
2021/05/06 10:52:00;;;;;;;3.40;1.65;;;;;;;;;;5134112;27;20450;-93
2021/05/06 10:54:33;;;;;;;3.08;1.70;;;;;;;;;;5142637;27;20035;-93
2021/05/06 10:57:00;;;;;;;2.35;1.60;;;;;;;;;;5134421;27;20115;-93
2021/05/06 10:59:27;;;;;;;3.63;1.90;;;;;;;;;;5138085;27;20035;-92
2021/05/06 11:01:53;;;;;;;4.28;1.90;;;;;;;;;;5137870;27;20039;-95
2021/05/06 11:04:31;;;;;;;3.30;1.80;;;;;;;;;;5137024;27;20056;-94
2021/05/06 11:07:08;;;;;;;3.65;1.88;;;;;;;;;;5133410;27;20480;-93
2021/05/06 11:09:50;;;;;;;4.80;1.77;;;;;;;;;;5127797;27;20078;-93
2021/05/06 11:12:17;;;;;;;3.42;1.90;;;;;;;;;;5130344;27;20055;-96
2021/05/06 11:15:13;;;;;;;3.03;1.52;;;;;;;;;;5128901;27;20047;-92
2021/05/06 11:17:42;;;;;;;2.75;1.63;;;;;;;;;;5128551;28;20035;-92
2021/05/06 11:23:25;;;;;;;2.83;1.63;;;;;;;;;;5153269;27;20359;-95
2021/05/06 11:25:51;;;;;;;5.10;1.70;;;;;;;;;;5148028;27;20047;-89
2021/05/06 11:28:39;;;;;;;3.35;1.60;;;;;;;;;;5151880;27;20044;-90
2021/05/06 11:31:05;;;;;;;3.22;1.70;;;;;;;;;;5151177;27;20111;-92
2021/05/06 11:33:30;;;;;;;3.97;2.00;;;;;;;;;;5149783;27;20058;-94
2021/05/06 11:35:56;;;;;;;3.50;1.67;;;;;;;;;;5153632;27;20035;-92
2021/05/06 11:38:28;;;;;;;1.98;1.65;;;;;;;;;;5150406;27;20039;-91
2021/05/06 11:40:57;;;;;;;3.53;1.80;;;;;;;;;;5151986;27;20081;-90
2021/05/06 11:43:23;;;;;;;3.60;1.60;;;;;;;;;;5151375;27;20449;-91
2021/05/06 11:45:48;;;;;;;3.47;1.70;;;;;;;;;;5151137;27;20091;-93
2021/05/06 11:48:16;;;;;;;3.40;1.60;;;;;;;;;;5150694;27;20038;-91
2021/05/06 11:50:42;;;;;;;3.08;1.67;;;;;;;;;;5152557;27;20046;-94
2021/05/06 11:53:13;;;;;;;3.53;1.77;;;;;;;;;;5156150;27;20142;-92
2021/05/06 11:55:41;;;;;;;2.22;1.50;;;;;;;;;;5152478;27;20092;-92
2021/05/06 11:58:08;;;;;;;2.33;1.50;;;;;;;;;;5152623;27;20575;-91
2021/05/06 12:00:34;;;;;;;3.40;1.60;;;;;;;;;;5150353;27;20082;-91
2021/05/06 12:03:01;;;;;;;3.83;1.63;;;;;;;;;;5152717;27;20031;-92
2021/05/06 12:05:45;;;;;;;3.63;1.80;;;;;;;;;;5151016;27;20043;-92
2021/05/06 12:08:11;;;;;;;3.15;1.50;;;;;;;;;;5152337;27;20038;-92
2021/05/06 12:10:38;;;;;;;3.20;1.83;;;;;;;;;;5149432;27;20039;-93
2021/05/06 12:13:04;;;;;;;3.83;1.63;;;;;;;;;;5149406;27;20121;-90
2021/05/06 12:15:30;;;;;;;4.97;1.83;;;;;;;;;;5148172;27;20245;-91
2021/05/06 12:18:17;;;;;;;2.72;1.60;;;;;;;;;;5152094;27;20084;-93
2021/05/06 12:20:50;;;;;;;2.85;1.70;;;;;;;;;;5131943;27;122045;-91
2021/05/06 12:24:49;;;;;;;4.03;1.65;;;;;;;;;;5132639;27;20906;-91
2021/05/06 12:27:16;;;;;;;4.35;1.70;;;;;;;;;;5112310;28;20048;-92
2021/05/06 12:29:48;;;;;;;4.63;1.80;;;;;;;;;;5116605;28;20381;-94
2021/05/06 12:32:21;;;;;;;2.95;1.40;;;;;;;;;;5112302;28;20059;-92
2021/05/06 12:34:50;;;;;;;5.13;1.90;;;;;;;;;;5114706;28;20055;-94
2021/05/06 12:37:17;;;;;;;3.33;1.70;;;;;;;;;;5111950;28;20063;-93
2021/05/06 12:39:46;;;;;;;3.08;1.67;;;;;;;;;;5112033;28;20492;-93
2021/05/06 12:42:15;;;;;;;4.55;1.60;;;;;;;;;;5112110;28;20069;-92
2021/05/06 12:44:42;;;;;;;3.38;1.67;;;;;;;;;;5113772;28;20054;-93
2021/05/06 12:47:16;;;;;;;3.35;1.90;;;;;;;;;;5113879;28;20066;-94
2021/05/06 12:49:42;;;;;;;3.40;1.63;;;;;;;;;;5111986;28;20047;-92
2021/05/06 12:52:23;;;;;;;6.25;1.70;;;;;;;;;;5111817;28;20500;-93
2021/05/06 12:54:49;;;;;;;2.58;1.50;;;;;;;;;;5113121;28;20067;-93
2021/05/06 12:57:16;;;;;;;3.08;1.80;;;;;;;;;;5112083;28;20032;-90
2021/05/06 13:02:41;;;;;;;2.33;1.50;;;;;;;;;;5111889;27;20415;-92
2021/05/06 13:05:07;;;;;;;4.90;2.00;;;;;;;;;;5111363;28;20461;-91
2021/05/06 13:07:33;;;;;;;2.78;1.45;;;;;;;;;;5112716;28;20075;-93
2021/05/06 13:09:58;;;;;;;4.10;1.90;;;;;;;;;;5101241;28;20036;-92
2021/05/06 13:12:25;;;;;;;2.85;1.42;;;;;;;;;;5110243;28;20557;-91
2021/05/06 13:14:51;;;;;;;4.35;1.70;;;;;;;;;;5109581;28;20036;-95
2021/05/06 13:17:24;;;;;;;5.53;1.60;;;;;;;;;;5102543;28;20071;-92
2021/05/06 13:19:50;;;;;;;4.05;1.50;;;;;;;;;;5102946;28;20114;-93
2021/05/06 13:22:15;;;;;;;3.40;1.45;;;;;;;;;;5107178;28;20028;-93
2021/05/06 13:24:41;;;;;;;3.58;1.70;;;;;;;;;;5103129;28;20112;-94
2021/05/06 13:27:12;;;;;;;4.07;1.42;;;;;;;;;;5104934;28;20036;-93
2021/05/06 13:29:45;;;;;;;2.20;1.30;;;;;;;;;;5111828;28;20089;-90
2021/05/06 13:32:11;;;;;;;3.70;1.55;;;;;;;;;;5112854;28;20032;-91
2021/05/06 13:34:36;;;;;;;2.30;1.30;;;;;;;;;;5109587;28;20040;-92
2021/05/06 13:37:04;;;;;;;2.78;1.45;;;;;;;;;;5109151;28;20113;-91
2021/05/06 13:39:29;;;;;;;3.67;1.30;;;;;;;;;;5108759;28;20051;-93
2021/05/06 13:41:55;;;;;;;2.22;1.50;;;;;;;;;;5095657;28;20036;-94
2021/05/06 13:47:24;;;;;;;2.15;1.35;;;;;;;;;;5133825;27;20352;-93
2021/05/06 13:49:49;;;;;;;3.00;1.50;;;;;;;;;;5133593;27;20069;-91
2021/05/06 13:52:15;;;;;;;2.60;1.40;;;;;;;;;;5132743;27;20048;-93
2021/05/06 13:54:40;;;;;;;2.45;1.30;;;;;;;;;;5132734;27;20392;-93
2021/05/06 13:57:06;;;;;;;4.78;1.70;;;;;;;;;;5132545;27;20039;-92
2021/05/06 13:59:32;;;;;;;4.00;1.52;;;;;;;;;;5131440;27;20031;-94
2021/05/06 14:01:57;;;;;;;3.00;1.50;;;;;;;;;;5132689;27;20035;-90
2021/05/06 14:04:24;;;;;;;3.22;1.50;;;;;;;;;;5132999;27;20035;-92
2021/05/06 14:06:50;;;;;;;2.83;1.77;;;;;;;;;;5133194;27;20091;-93
2021/05/06 14:09:17;;;;;;;3.22;1.40;;;;;;;;;;5132237;27;20036;-92
2021/05/06 14:11:42;;;;;;;4.07;1.40;;;;;;;;;;5132671;27;20080;-91
2021/05/06 14:14:08;;;;;;;4.13;1.77;;;;;;;;;;5132267;27;20035;-93
2021/05/06 14:16:34;;;;;;;2.92;1.40;;;;;;;;;;5124449;28;20028;-92
2021/05/06 14:18:59;;;;;;;4.53;1.52;;;;;;;;;;5131921;28;20054;-93
2021/05/06 14:21:26;;;;;;;4.57;1.60;;;;;;;;;;5132503;27;20119;-92
2021/05/06 14:23:52;;;;;;;4.00;1.70;;;;;;;;;;5131456;27;20044;-92
2021/05/06 14:29:16;;;;;;;2.15;1.40;;;;;;;;;;5113978;27;20354;-91
2021/05/06 14:31:42;;;;;;;4.90;1.95;;;;;;;;;;5111767;28;20040;-90
2021/05/06 14:34:08;;;;;;;2.88;1.60;;;;;;;;;;5113567;28;20122;-93
2021/05/06 14:36:33;;;;;;;2.45;1.40;;;;;;;;;;5113423;28;20059;-93
2021/05/06 14:39:02;;;;;;;3.47;1.40;;;;;;;;;;5112895;28;20036;-92
2021/05/06 14:41:27;;;;;;;3.20;1.48;;;;;;;;;;5113744;28;20056;-92
2021/05/06 14:43:53;;;;;;;2.20;1.30;;;;;;;;;;5112268;28;20042;-92
2021/05/06 14:46:21;;;;;;;2.20;1.20;;;;;;;;;;5110085;28;20043;-92
2021/05/06 14:48:46;;;;;;;3.17;1.42;;;;;;;;;;5111559;28;20042;-91
2021/05/06 14:51:12;;;;;;;1.92;1.30;;;;;;;;;;5112390;28;20036;-92
2021/05/06 14:53:37;;;;;;;3.13;1.45;;;;;;;;;;5111314;28;20480;-92
2021/05/06 14:56:03;;;;;;;3.67;1.50;;;;;;;;;;5113743;28;20051;-95
2021/05/06 14:58:30;;;;;;;1.95;1.40;;;;;;;;;;5113487;28;21064;-92
2021/05/06 15:00:56;;;;;;;4.85;1.85;;;;;;;;;;5112332;28;20043;-91
2021/05/06 15:03:22;;;;;;;4.15;1.60;;;;;;;;;;5108732;28;20101;-90
2021/05/06 15:05:48;;;;;;;3.97;1.70;;;;;;;;;;5112605;28;20050;-91
2021/05/06 15:08:13;;;;;;;3.55;1.73;;;;;;;;;;5113603;28;20447;-93
2021/05/06 15:10:39;;;;;;;2.92;1.55;;;;;;;;;;5116336;28;20122;-91
2021/05/06 15:13:05;;;;;;;2.78;1.40;;;;;;;;;;5132959;27;20096;-91
2021/05/06 15:15:30;;;;;;;2.45;1.48;;;;;;;;;;5111847;28;20035;-92
2021/05/06 15:17:58;;;;;;;4.00;1.80;;;;;;;;;;5113395;28;20032;-91
2021/05/06 15:20:25;;;;;;;3.40;1.70;;;;;;;;;;5112777;28;20035;-91
2021/05/06 15:22:50;;;;;;;3.97;1.58;;;;;;;;;;5113136;28;20513;-92
2021/05/06 15:25:16;;;;;;;4.32;1.70;;;;;;;;;;5112732;28;20060;-92
2021/05/06 15:27:42;;;;;;;3.78;1.60;;;;;;;;;;5112077;28;20052;-92
2021/05/06 15:30:08;;;;;;;3.72;1.50;;;;;;;;;;5113401;28;20046;-94
2021/05/06 15:32:34;;;;;;;3.20;1.50;;;;;;;;;;5112770;28;20036;-93
2021/05/06 15:35:01;;;;;;;2.20;1.40;;;;;;;;;;5112124;28;20126;-91
2021/05/06 15:37:28;;;;;;;4.13;1.50;;;;;;;;;;5111576;28;20134;-94
2021/05/06 15:39:53;;;;;;;3.47;1.67;;;;;;;;;;5103382;28;20059;-92
2021/05/06 15:42:19;;;;;;;3.92;1.40;;;;;;;;;;5098996;28;20063;-94
2021/05/06 15:44:44;;;;;;;3.85;1.60;;;;;;;;;;5098502;28;20040;-92
2021/05/06 15:47:10;;;;;;;5.38;1.52;;;;;;;;;;5099107;28;20036;-93
2021/05/06 15:49:37;;;;;;;2.95;1.52;;;;;;;;;;5099061;28;20036;-93
2021/05/06 15:52:03;;;;;;;4.35;1.70;;;;;;;;;;5098999;28;20047;-92
2021/05/06 15:54:30;;;;;;;3.05;1.40;;;;;;;;;;5098942;28;20040;-93
2021/05/06 15:56:56;;;;;;;4.97;1.95;;;;;;;;;;5099301;28;20067;-92
2021/05/06 15:59:22;;;;;;;2.88;1.40;;;;;;;;;;5099794;28;20083;-94
2021/05/06 16:01:47;;;;;;;3.17;1.60;;;;;;;;;;5097887;28;20179;-91
2021/05/06 16:04:17;;;;;;;3.75;1.83;;;;;;;;;;5100317;28;20042;-94
2021/05/06 16:06:42;;;;;;;2.58;1.38;;;;;;;;;;5099513;28;20059;-93
2021/05/06 16:09:08;;;;;;;6.40;1.70;;;;;;;;;;5097051;28;20060;-91
2021/05/06 16:11:37;;;;;;;3.78;1.35;;;;;;;;;;5098324;28;20044;-94
2021/05/06 16:14:03;;;;;;;3.13;1.48;;;;;;;;;;5098770;28;20379;-94
2021/05/06 16:16:29;;;;;;;2.53;1.50;;;;;;;;;;5098842;28;20043;-92
2021/05/06 16:18:54;;;;;;;2.83;1.40;;;;;;;;;;5099466;28;20035;-93
2021/05/06 16:21:20;;;;;;;3.63;1.80;;;;;;;;;;5098691;28;20044;-92
2021/05/06 16:23:45;;;;;;;4.80;1.88;;;;;;;;;;5098702;28;20050;-93
2021/05/06 16:26:11;;;;;;;4.55;2.10;;;;;;;;;;5099697;28;20040;-94
2021/05/06 16:28:41;;;;;;;3.67;1.80;;;;;;;;;;5088067;28;20044;-94
2021/05/06 16:31:07;;;;;;;3.00;1.50;;;;;;;;;;5098483;28;20043;-94
2021/05/06 16:33:37;;;;;;;3.95;1.88;;;;;;;;;;5098534;28;20040;-93
2021/05/06 16:44:45;;;;;;;4.10;1.70;;;;;;;;;;4810250;27;9878813;-92
2021/05/06 16:47:10;;;;;;;4.88;1.75;;;;;;;;;;5186016;27;20096;-94
2021/05/06 16:49:36;;;;;;;2.72;1.63;;;;;;;;;;5185755;27;20398;-94
2021/05/06 16:52:05;;;;;;;4.10;1.75;;;;;;;;;;5178939;27;20141;-92
2021/05/06 16:54:31;;;;;;;2.83;1.60;;;;;;;;;;5176225;27;20047;-94
2021/05/06 16:56:57;;;;;;;3.40;1.60;;;;;;;;;;5193362;27;20122;-94
2021/05/06 16:59:23;;;;;;;4.82;1.80;;;;;;;;;;5176764;27;20082;-93
2021/05/06 17:01:50;;;;;;;4.68;1.83;;;;;;;;;;5185456;27;20034;-92
2021/05/06 17:04:16;;;;;;;4.40;2.40;;;;;;;;;;5182065;27;20452;-95
2021/05/06 17:06:42;;;;;;;3.28;1.63;;;;;;;;;;5181406;27;20035;-95
2021/05/06 17:09:08;;;;;;;3.08;1.50;;;;;;;;;;5169029;27;20044;-94
2021/05/06 17:11:35;;;;;;;4.93;1.67;;;;;;;;;;5176358;27;20373;-95
2021/05/06 17:14:01;;;;;;;4.57;2.22;;;;;;;;;;5176452;27;20497;-93
2021/05/06 17:16:26;;;;;;;2.53;1.73;;;;;;;;;;5186143;27;20038;-93
2021/05/06 17:18:53;;;;;;;5.85;2.33;;;;;;;;;;5178328;27;20039;-93
2021/05/06 17:21:19;;;;;;;4.43;1.90;;;;;;;;;;5187601;27;20042;-93
2021/05/06 17:23:46;;;;;;;3.13;2.00;;;;;;;;;;5181256;27;20038;-94
2021/05/06 17:26:12;;;;;;;5.35;2.15;;;;;;;;;;5183725;27;20407;-95
2021/05/06 17:28:38;;;;;;;4.55;1.80;;;;;;;;;;5177384;27;20069;-93
2021/05/06 17:31:03;;;;;;;4.90;2.17;;;;;;;;;;5182190;27;20033;-93
2021/05/06 17:33:29;;;;;;;5.47;1.75;;;;;;;;;;5175362;27;20038;-96
2021/05/06 17:35:56;;;;;;;5.57;1.90;;;;;;;;;;5188454;27;20074;-94
2021/05/06 17:38:22;;;;;;;4.85;2.08;;;;;;;;;;5171676;27;20580;-94
2021/05/06 17:40:48;;;;;;;4.50;2.20;;;;;;;;;;5195913;27;20104;-92
2021/05/06 17:43:13;;;;;;;4.15;1.65;;;;;;;;;;5155965;27;20487;-94
2021/05/06 17:45:39;;;;;;;5.05;1.80;;;;;;;;;;5162676;27;20042;-93
2021/05/06 17:48:13;;;;;;;4.97;2.05;;;;;;;;;;5179909;27;20042;-93
2021/05/06 17:50:38;;;;;;;5.30;1.80;;;;;;;;;;5177018;27;20046;-94
2021/05/06 17:53:05;;;;;;;4.72;1.50;;;;;;;;;;5176879;27;20027;-93
2021/05/06 17:55:31;;;;;;;3.50;1.80;;;;;;;;;;5167846;27;20042;-92
2021/05/06 17:57:56;;;;;;;2.92;1.63;;;;;;;;;;5169768;27;20451;-94
2021/05/06 18:00:22;;;;;;;3.53;1.50;;;;;;;;;;5161828;27;20133;-94
2021/05/06 18:02:48;;;;;;;3.60;1.52;;;;;;;;;;5164303;27;20066;-93
2021/05/06 18:05:15;;;;;;;4.00;1.80;;;;;;;;;;5171649;27;20050;-95
2021/05/06 18:07:40;;;;;;;3.33;1.70;;;;;;;;;;5161791;27;20038;-94
2021/05/06 18:13:05;;;;;;;2.17;1.40;;;;;;;;;;5012014;27;4824931;-94
2021/05/06 18:15:30;;;;;;;2.47;1.50;;;;;;;;;;5165871;27;20054;-92
2021/05/06 18:17:57;;;;;;;4.22;1.70;;;;;;;;;;5165734;27;20073;-94
2021/05/06 18:20:22;;;;;;;4.10;1.50;;;;;;;;;;5163716;27;20138;-91
2021/05/06 18:22:50;;;;;;;3.22;1.58;;;;;;;;;;5174092;27;20487;-94
2021/05/06 18:25:15;;;;;;;4.43;1.80;;;;;;;;;;5180115;27;20177;-94
2021/05/06 18:27:41;;;;;;;4.28;1.52;;;;;;;;;;5181428;27;20096;-95
2021/05/06 18:30:10;;;;;;;3.88;1.58;;;;;;;;;;5180591;27;20042;-93
2021/05/06 18:32:36;;;;;;;;;;;;;;;;;;5183484;27;20047;-94
2021/05/06 18:35:05;;;;;;;4.07;1.70;;;;;;;;;;5181265;27;19911;-93
2021/05/06 18:37:31;;;;;;;5.40;2.10;;;;;;;;;;5168860;27;20058;-95
2021/05/06 18:40:02;;;;;;;4.22;1.70;;;;;;;;;;5161379;27;20492;-93
2021/05/06 18:42:30;;;;;;;4.07;1.77;;;;;;;;;;5166072;27;20126;-95
2021/05/06 18:44:55;;;;;;;6.07;1.90;;;;;;;;;;5168937;27;20494;-92
2021/05/06 18:50:29;;;;;;;4.90;1.75;;;;;;;;;;5130347;27;20384;-92
2021/05/06 18:52:55;;;;;;;5.18;2.00;;;;;;;;;;5101698;28;20091;-92
2021/05/06 18:55:21;;;;;;;3.65;1.77;;;;;;;;;;5109597;28;20124;-92
2021/05/06 18:57:49;;;;;;;4.90;2.00;;;;;;;;;;5098709;28;20066;-92
2021/05/06 19:00:15;;;;;;;4.82;2.13;;;;;;;;;;5098817;28;20043;-92
2021/05/06 19:02:42;;;;;;;5.65;2.47;;;;;;;;;;5100683;28;20037;-94
2021/05/06 19:05:09;;;;;;;3.88;1.90;;;;;;;;;;5098421;28;20036;-93
2021/05/06 19:07:35;;;;;;;4.45;1.90;;;;;;;;;;5109368;28;20040;-93
2021/05/06 19:10:01;;;;;;;5.88;2.10;;;;;;;;;;5097230;28;20036;-93
2021/05/06 19:12:26;;;;;;;8.77;2.58;;;;;;;;;;5105341;28;20421;-93
2021/05/06 19:14:52;;;;;;;4.50;2.13;;;;;;;;;;5117702;28;20085;-93
2021/05/06 19:17:18;;;;;;;5.25;2.38;;;;;;;;;;5108781;28;20130;-93
2021/05/06 19:19:44;;;;;;;5.03;2.00;;;;;;;;;;5113281;28;20059;-93
2021/05/06 19:22:09;;;;;;;4.95;2.00;;;;;;;;;;5115714;28;20038;-94
2021/05/06 19:24:36;;;;;;;4.63;2.10;;;;;;;;;;5118214;28;20035;-94
2021/05/06 19:27:02;;;;;;;4.45;2.22;;;;;;;;;;5113135;28;20048;-94
2021/05/06 19:29:28;;;;;;;5.60;2.25;;;;;;;;;;5111056;28;20097;-94
2021/05/06 19:31:55;;;;;;;6.95;2.28;;;;;;;;;;5117573;28;20097;-91
2021/05/06 19:34:20;;;;;;;6.50;2.10;;;;;;;;;;5109373;28;20032;-93
2021/05/06 19:36:46;;;;;;;4.90;2.35;;;;;;;;;;5115551;28;20126;-92
2021/05/06 19:39:12;;;;;;;4.07;2.00;;;;;;;;;;5109884;28;20051;-94
2021/05/06 19:41:39;;;;;;;3.97;2.10;;;;;;;;;;5108113;28;20500;-92
2021/05/06 19:44:07;;;;;;;6.50;2.47;;;;;;;;;;5107813;28;20044;-93
2021/05/06 19:49:31;;;;;;;4.38;2.00;;;;;;;;;;5158741;27;20115;-91
2021/05/06 19:51:57;;;;;;;5.25;2.20;;;;;;;;;;5158633;27;20069;-92
2021/05/06 19:54:23;;;;;;;5.45;1.98;;;;;;;;;;5160346;27;20555;-93
2021/05/06 19:56:48;;;;;;;7.60;2.30;;;;;;;;;;5160401;27;20117;-94
2021/05/06 19:59:16;;;;;;;7.27;2.10;;;;;;;;;;5160627;27;20037;-93
2021/05/06 20:01:42;;;;;;;5.60;2.30;;;;;;;;;;5159537;27;20054;-92
2021/05/06 20:04:10;;;;;;;5.40;2.57;;;;;;;;;;5151353;27;20035;-93
2021/05/06 20:06:37;;;;;;;5.95;2.47;;;;;;;;;;5159123;27;20371;-93
2021/05/06 20:09:03;;;;;;;4.70;2.00;;;;;;;;;;5160744;27;20063;-93
2021/05/06 20:11:29;;;;;;;5.32;2.13;;;;;;;;;;5162917;27;20038;-92
2021/05/06 20:13:55;;;;;;;5.93;2.55;;;;;;;;;;5161563;27;20046;-94
2021/05/06 20:16:21;;;;;;;6.88;2.42;;;;;;;;;;5155022;27;20074;-93
2021/05/06 20:18:52;;;;;;;8.23;2.70;;;;;;;;;;5161601;27;20130;-94
2021/05/06 20:24:02;;;;;;;5.90;2.60;;;;;;;;;;5116291;27;20714;-93
2021/05/06 20:26:27;;;;;;;6.82;2.20;;;;;;;;;;5119992;28;20058;-92
2021/05/06 20:28:53;;;;;;;5.35;2.58;;;;;;;;;;5102291;28;20127;-92
2021/05/06 20:31:18;;;;;;;9.35;2.92;;;;;;;;;;5116867;28;20044;-94
2021/05/06 20:33:44;;;;;;;8.05;2.95;;;;;;;;;;5111412;28;20092;-95
2021/05/06 20:36:09;;;;;;;7.53;2.58;;;;;;;;;;5106914;28;20031;-93
2021/05/06 20:38:35;;;;;;;4.88;2.90;;;;;;;;;;5102871;28;20044;-93
2021/05/06 20:41:02;;;;;;;6.57;2.72;;;;;;;;;;5108716;28;20038;-93
2021/05/06 20:46:26;;;;;;;8.38;2.70;;;;;;;;;;5168310;27;20110;-94
2021/05/06 20:48:51;;;;;;;8.10;2.70;;;;;;;;;;5134231;27;20059;-92
2021/05/06 20:51:17;;;;;;;6.65;2.53;;;;;;;;;;5134657;27;20050;-92
2021/05/06 20:53:42;;;;;;;6.20;2.63;;;;;;;;;;5134220;27;20118;-92
2021/05/06 20:56:08;;;;;;;8.27;3.00;;;;;;;;;;5134222;28;20043;-94
2021/05/06 20:58:33;;;;;;;7.40;2.92;;;;;;;;;;5134999;28;20039;-94
2021/05/06 21:01:04;;;;;;;6.18;3.55;;;;;;;;;;5133740;27;20096;-93
2021/05/06 21:03:31;;;;;;;8.05;2.80;;;;;;;;;;5134822;27;20032;-92
2021/05/06 21:05:57;;;;;;;6.00;2.90;;;;;;;;;;5133704;27;20414;-93
2021/05/06 21:08:23;;;;;;;7.57;3.50;;;;;;;;;;5132629;27;20088;-93
2021/05/06 21:10:49;;;;;;;7.97;3.03;;;;;;;;;;5133837;27;20043;-95
2021/05/06 21:13:15;;;;;;;8.73;2.92;;;;;;;;;;5133038;27;20141;-94
2021/05/06 21:15:40;;;;;;;7.32;3.38;;;;;;;;;;5134033;28;20035;-92
2021/05/06 21:18:06;;;;;;;9.57;3.30;;;;;;;;;;5134209;28;20053;-93
2021/05/06 21:20:46;;;;;;;8.30;3.20;;;;;;;;;;5133760;27;20062;-93
2021/05/06 21:23:12;;;;;;;6.80;3.10;;;;;;;;;;5134099;27;20073;-93
2021/05/06 21:25:37;;;;;;;7.82;3.00;;;;;;;;;;5132942;28;20480;-93
2021/05/06 21:28:03;;;;;;;6.15;3.05;;;;;;;;;;5132199;28;20495;-92
2021/05/06 21:30:47;;;;;;;8.45;3.05;;;;;;;;;;5113354;28;20082;-95
2021/05/06 21:33:13;;;;;;;5.20;2.80;;;;;;;;;;5132584;28;20039;-92
2021/05/06 21:35:38;;;;;;;4.72;3.30;;;;;;;;;;5132569;28;20061;-92
2021/05/06 21:38:05;;;;;;;5.90;2.90;;;;;;;;;;5132369;27;20079;-93
2021/05/06 21:40:30;;;;;;;6.82;3.08;;;;;;;;;;5131953;28;20051;-93
2021/05/06 21:42:56;;;;;;;7.25;3.03;;;;;;;;;;5132151;27;20035;-93
2021/05/06 21:45:21;;;;;;;7.00;2.60;;;;;;;;;;5131043;27;20082;-95
2021/05/06 21:47:47;;;;;;;11.07;3.15;;;;;;;;;;5132027;28;20051;-93
2021/05/06 21:50:13;;;;;;;7.38;2.83;;;;;;;;;;5131140;28;20034;-92
2021/05/06 21:52:38;;;;;;;5.20;2.80;;;;;;;;;;5131270;28;20476;-94
2021/05/06 21:55:05;;;;;;;8.68;3.00;;;;;;;;;;5131125;28;20545;-93
2021/05/06 21:57:31;;;;;;;5.53;2.80;;;;;;;;;;5118839;28;20047;-94
2021/05/06 21:59:56;;;;;;;7.45;2.70;;;;;;;;;;5117140;28;20046;-92
2021/05/06 22:02:22;;;;;;;7.18;3.03;;;;;;;;;;5117482;28;20065;-93
2021/05/06 22:04:48;;;;;;;5.55;2.70;;;;;;;;;;5117485;28;20035;-93
2021/05/06 22:07:13;;;;;;;6.60;2.80;;;;;;;;;;5117694;28;20068;-93
2021/05/06 22:09:39;;;;;;;6.70;2.83;;;;;;;;;;5117116;28;20447;-93
2021/05/06 22:12:05;;;;;;;6.88;2.75;;;;;;;;;;5117120;28;20396;-92
2021/05/06 22:14:31;;;;;;;6.18;2.80;;;;;;;;;;5117174;28;20039;-94
2021/05/06 22:16:56;;;;;;;6.65;2.72;;;;;;;;;;5116481;28;20488;-92
2021/05/06 22:19:22;;;;;;;4.75;2.90;;;;;;;;;;5117309;28;20032;-94
2021/05/06 22:21:47;;;;;;;6.65;3.30;;;;;;;;;;5116912;28;20114;-95
2021/05/06 22:24:13;;;;;;;4.95;2.72;;;;;;;;;;5116714;28;20055;-92
2021/05/06 22:26:39;;;;;;;7.38;3.08;;;;;;;;;;5117301;28;20032;-93
2021/05/06 22:29:06;;;;;;;7.60;3.03;;;;;;;;;;5116917;28;20047;-93
2021/05/06 22:31:32;;;;;;;6.18;2.88;;;;;;;;;;5116462;28;20427;-94
2021/05/06 22:33:58;;;;;;;8.55;3.30;;;;;;;;;;5117090;28;20510;-94
2021/05/06 22:36:23;;;;;;;6.20;2.90;;;;;;;;;;5116744;28;20114;-91
2021/05/06 22:38:49;;;;;;;5.28;3.00;;;;;;;;;;5116701;28;20039;-92
2021/05/06 22:41:14;;;;;;;7.72;2.80;;;;;;;;;;5116681;28;20877;-92
2021/05/06 22:43:40;;;;;;;6.70;3.20;;;;;;;;;;5113859;28;20047;-93
2021/05/06 22:46:06;;;;;;;6.65;3.30;;;;;;;;;;5115794;28;20487;-93
2021/05/06 22:48:32;;;;;;;7.13;3.42;;;;;;;;;;5116553;28;20047;-94
2021/05/06 22:50:57;;;;;;;6.47;3.05;;;;;;;;;;5116415;28;20376;-92
2021/05/06 22:53:23;;;;;;;7.07;3.30;;;;;;;;;;5116910;28;20039;-93
2021/05/06 22:55:48;;;;;;;6.15;3.10;;;;;;;;;;5116570;28;20038;-94
2021/05/06 22:58:14;;;;;;;6.53;3.25;;;;;;;;;;5116581;28;20039;-94
2021/05/06 23:00:39;;;;;;;7.03;3.08;;;;;;;;;;5116415;28;20044;-93
2021/05/06 23:03:07;;;;;;;10.18;3.40;;;;;;;;;;5116072;28;20059;-94
2021/05/06 23:05:32;;;;;;;6.60;2.85;;;;;;;;;;5115860;28;20032;-93
2021/05/06 23:07:58;;;;;;;8.65;3.53;;;;;;;;;;5115158;28;20127;-94
2021/05/06 23:10:23;;;;;;;6.35;3.13;;;;;;;;;;5115988;28;20039;-93
2021/05/06 23:12:49;;;;;;;7.30;2.95;;;;;;;;;;5116168;28;20043;-94
2021/05/06 23:15:14;;;;;;;6.72;2.85;;;;;;;;;;5115696;28;20445;-93
2021/05/06 23:17:40;;;;;;;7.68;2.58;;;;;;;;;;5116017;28;20434;-92
2021/05/06 23:20:07;;;;;;;6.20;2.97;;;;;;;;;;5115870;28;20032;-95
2021/05/06 23:22:33;;;;;;;7.95;3.03;;;;;;;;;;5116071;28;20143;-94
2021/05/06 23:24:59;;;;;;;4.93;2.60;;;;;;;;;;5115389;28;20060;-94
2021/05/06 23:27:24;;;;;;;7.90;2.65;;;;;;;;;;5115686;28;20063;-94
2021/05/06 23:29:50;;;;;;;6.05;2.80;;;;;;;;;;5114960;28;20035;-92
2021/05/06 23:32:15;;;;;;;9.75;2.80;;;;;;;;;;5115958;28;20035;-93
2021/05/06 23:34:41;;;;;;;5.18;2.55;;;;;;;;;;5115791;28;20101;-95
2021/05/06 23:37:09;;;;;;;5.93;3.20;;;;;;;;;;5115581;28;20044;-94